Trans Sea — 9HA2564 — position and weather

sailwx.info

Track history (hours):
 
Tides and Currents Weather Stations Pressure Air Temp Water Temp Dewpoint Dewpoint Depression Visibility Wind Speed Wind Dir Waves Ship Positions

Trans Sea

Last reported at 2015-Jan-28 16:33 UTC. Time now 2015-Jan-28 20:15 UTC.
Position N 40°02' E 000°57'.

Length 107 m; draft 6.3 m.

Type: Ship (hazmat cat B). MMSI: 248887000.

Date/timePositionNaut miles runAvg speedWind from/ knotsBaromVisibWave heightAir tempDewpointWater temp
2015-Jan-28 16:33N 40°02' E 000°57'1312.9
2015-Jan-28 15:31N 40°15' E 001°01'1412.9
2015-Jan-28 14:24N 40°29' E 001°06'58 1.1
2015-Jan-26 12:13N 41°06' E 002°04'2413.8
2015-Jan-26 10:28N 41°19' E 002°31'1313.3
2015-Jan-26 09:28N 41°27' E 002°45'1313.1
2015-Jan-26 08:29N 41°35' E 002°59'1212.6
2015-Jan-26 07:32N 41°41' E 003°12'1313.0
2015-Jan-26 06:33N 41°50' E 003°26'1312.9
2015-Jan-26 05:33N 41°59' E 003°37'1212.3
2015-Jan-26 04:33N 42°09' E 003°48'1212.1
2015-Jan-26 03:33N 42°18' E 003°58'1211.8
2015-Jan-26 02:33N 42°27' E 004°08'1211.6
2015-Jan-26 01:34N 42°36' E 004°18'1311.9
2015-Jan-26 00:27N 42°46' E 004°30'1211.5
2015-Jan-25 23:27N 42°55' E 004°40'2211.7
2015-Jan-25 21:33N 43°12' E 004°59'1211.6
2015-Jan-25 20:33N 43°23' E 004°57'5 4.8
2015-Jan-25 19:31N 43°25' E 004°50'0 0.0
2015-Jan-25 18:31N 43°25' E 004°50'0 0.0
2015-Jan-25 17:25N 43°25' E 004°50'0 0.0
2015-Jan-25 16:22N 43°25' E 004°50'0 0.0
2015-Jan-25 15:25N 43°25' E 004°50'0 0.0
2015-Jan-25 14:28N 43°25' E 004°50'0 0.0
2015-Jan-25 13:31N 43°25' E 004°50'0 0.0
2015-Jan-25 12:22N 43°25' E 004°50'0 0.0
2015-Jan-25 11:31N 43°25' E 004°50'0 0.0
2015-Jan-25 10:31N 43°25' E 004°50'0 0.0
2015-Jan-25 09:28N 43°25' E 004°50'0 0.0
2015-Jan-25 08:28N 43°25' E 004°50'0 0.0
2015-Jan-25 07:31N 43°25' E 004°50'0 0.0
2015-Jan-25 06:22N 43°25' E 004°50'0 0.0
2015-Jan-25 05:28N 43°25' E 004°50'0 0.0
2015-Jan-25 04:28N 43°25' E 004°50'0 0.0
2015-Jan-25 03:28N 43°25' E 004°50'0 0.0
2015-Jan-25 02:31N 43°25' E 004°50'0 0.0
2015-Jan-25 01:25N 43°25' E 004°50'0 0.0
2015-Jan-25 00:31N 43°25' E 004°50'0 0.0
2015-Jan-24 23:28N 43°25' E 004°50'0 0.0
2015-Jan-24 22:31N 43°25' E 004°50'0 0.0
2015-Jan-24 21:31N 43°25' E 004°50'0 0.0
2015-Jan-24 20:13N 43°25' E 004°50'0 0.0
2015-Jan-24 18:16N 43°25' E 004°50'0 0.0
2015-Jan-24 14:22N 43°25' E 004°50'0 0.0
2015-Jan-24 13:28N 43°25' E 004°50'0 0.0
2015-Jan-24 12:22N 43°25' E 004°50'0 0.0
2015-Jan-24 11:28N 43°25' E 004°50'0 0.0
2015-Jan-24 10:28N 43°25' E 004°50'0 0.0
2015-Jan-24 09:22N 43°25' E 004°50'0 0.0
2015-Jan-24 08:28N 43°25' E 004°50'0 0.0
2015-Jan-24 06:16N 43°25' E 004°50'0 0.0
2015-Jan-24 05:28N 43°25' E 004°50'0 0.0
2015-Jan-24 04:28N 43°25' E 004°50'0 0.0
2015-Jan-24 03:16N 43°25' E 004°50'0 0.0
2015-Jan-24 02:28N 43°25' E 004°50'0 0.0
2015-Jan-24 01:16N 43°25' E 004°50'0 0.0
2015-Jan-24 00:28N 43°25' E 004°50'0 0.0
2015-Jan-23 23:31N 43°25' E 004°50'0 0.0
2015-Jan-23 22:28N 43°25' E 004°50'0 0.0
2015-Jan-23 21:16N 43°25' E 004°50'0 0.0
2015-Jan-23 20:16N 43°25' E 004°50'0 0.0
2015-Jan-23 19:10N 43°25' E 004°50'0 0.0
2015-Jan-23 18:16N 43°25' E 004°50'0 0.5
2015-Jan-23 17:33N 43°25' E 004°51'6 5.5
2015-Jan-23 16:31N 43°23' E 004°58'0 0.0
2015-Jan-23 15:31N 43°23' E 004°58'0 0.0
2015-Jan-23 14:31N 43°23' E 004°58'0 0.0
2015-Jan-23 13:31N 43°23' E 004°58'0 0.0
2015-Jan-23 12:31N 43°23' E 004°58'0 0.0
2015-Jan-23 11:31N 43°23' E 004°58'0 0.0
2015-Jan-23 10:31N 43°23' E 004°58'0 0.0
2015-Jan-23 09:31N 43°23' E 004°58'0 0.0
2015-Jan-23 08:31N 43°23' E 004°58'0 0.0
2015-Jan-23 07:31N 43°23' E 004°58'0 0.0
2015-Jan-23 06:31N 43°23' E 004°58'0 0.0
2015-Jan-23 05:31N 43°23' E 004°58'0 0.0
2015-Jan-23 04:31N 43°24' E 004°58'0 0.0
2015-Jan-23 03:31N 43°24' E 004°58'0 0.0
2015-Jan-23 02:32N 43°23' E 004°58'0 0.0
2015-Jan-23 01:32N 43°24' E 004°58'0 0.0
2015-Jan-23 00:32N 43°24' E 004°58'0 0.0
2015-Jan-22 23:31N 43°24' E 004°58'0 0.0
2015-Jan-22 22:31N 43°24' E 004°58'0 0.0
2015-Jan-22 21:31N 43°24' E 004°58'0 0.0
2015-Jan-22 20:31N 43°24' E 004°58'0 0.0
2015-Jan-22 19:31N 43°24' E 004°58'0 0.0
2015-Jan-22 18:31N 43°24' E 004°58'0 0.0
2015-Jan-22 17:31N 43°24' E 004°58'0 0.0
2015-Jan-22 16:31N 43°24' E 004°58'0 0.0
2015-Jan-22 15:31N 43°24' E 004°58'0 0.0
2015-Jan-22 14:31N 43°24' E 004°58'0 0.0
2015-Jan-22 13:31N 43°24' E 004°58'0 0.0
2015-Jan-22 12:31N 43°24' E 004°58'0 0.0
2015-Jan-22 11:31N 43°24' E 004°58'0 0.0
2015-Jan-22 10:31N 43°24' E 004°58'0 0.0
2015-Jan-22 09:31N 43°24' E 004°58'0 0.0
2015-Jan-22 08:31N 43°24' E 004°58'0 0.0
2015-Jan-22 07:31N 43°24' E 004°58'0 0.0
2015-Jan-22 06:31N 43°24' E 004°58'0 0.1
2015-Jan-22 05:34N 43°24' E 004°58'7 6.6
2015-Jan-22 04:34N 43°17' E 005°00'79 9.8
2015-Jan-21 20:32N 42°53' E 006°43'1111.3
2015-Jan-21 19:33N 42°54' E 006°58'1111.5
2015-Jan-21 18:33N 42°56' E 007°13'  
Track history (hours):
 
Tides and Currents Weather Stations Pressure Air Temp Water Temp Dewpoint Dewpoint Depression Visibility Wind Speed Wind Dir Waves Ship Positions

Trans Sea

Last reported at 2015-Jan-28 16:33 UTC. Time now 2015-Jan-28 20:15 UTC.
Position N 40°02' E 000°57'.

Length 107 m; draft 6.3 m.

Type: Ship (hazmat cat B). MMSI: 248887000.

Date/timePositionNaut miles runAvg speedWind from/ knotsBaromVisibWave heightAir tempDewpointWater temp
2015-Jan-28 16:33N 40°02' E 000°57'1312.9
2015-Jan-28 15:31N 40°15' E 001°01'1412.9
2015-Jan-28 14:24N 40°29' E 001°06'58 1.1
2015-Jan-26 12:13N 41°06' E 002°04'2413.8
2015-Jan-26 10:28N 41°19' E 002°31'1313.3
2015-Jan-26 09:28N 41°27' E 002°45'1313.1
2015-Jan-26 08:29N 41°35' E 002°59'1212.6
2015-Jan-26 07:32N 41°41' E 003°12'1313.0
2015-Jan-26 06:33N 41°50' E 003°26'1312.9
2015-Jan-26 05:33N 41°59' E 003°37'1212.3
2015-Jan-26 04:33N 42°09' E 003°48'1212.1
2015-Jan-26 03:33N 42°18' E 003°58'1211.8
2015-Jan-26 02:33N 42°27' E 004°08'1211.6
2015-Jan-26 01:34N 42°36' E 004°18'1311.9
2015-Jan-26 00:27N 42°46' E 004°30'1211.5
2015-Jan-25 23:27N 42°55' E 004°40'2211.7
2015-Jan-25 21:33N 43°12' E 004°59'1211.6
2015-Jan-25 20:33N 43°23' E 004°57'5 4.8
2015-Jan-25 19:31N 43°25' E 004°50'0 0.0
2015-Jan-25 18:31N 43°25' E 004°50'0 0.0
2015-Jan-25 17:25N 43°25' E 004°50'0 0.0
2015-Jan-25 16:22N 43°25' E 004°50'0 0.0
2015-Jan-25 15:25N 43°25' E 004°50'0 0.0
2015-Jan-25 14:28N 43°25' E 004°50'0 0.0
2015-Jan-25 13:31N 43°25' E 004°50'0 0.0
2015-Jan-25 12:22N 43°25' E 004°50'0 0.0
2015-Jan-25 11:31N 43°25' E 004°50'0 0.0
2015-Jan-25 10:31N 43°25' E 004°50'0 0.0
2015-Jan-25 09:28N 43°25' E 004°50'0 0.0
2015-Jan-25 08:28N 43°25' E 004°50'0 0.0
2015-Jan-25 07:31N 43°25' E 004°50'0 0.0
2015-Jan-25 06:22N 43°25' E 004°50'0 0.0
2015-Jan-25 05:28N 43°25' E 004°50'0 0.0
2015-Jan-25 04:28N 43°25' E 004°50'0 0.0
2015-Jan-25 03:28N 43°25' E 004°50'0 0.0
2015-Jan-25 02:31N 43°25' E 004°50'0 0.0
2015-Jan-25 01:25N 43°25' E 004°50'0 0.0
2015-Jan-25 00:31N 43°25' E 004°50'0 0.0
2015-Jan-24 23:28N 43°25' E 004°50'0 0.0
2015-Jan-24 22:31N 43°25' E 004°50'0 0.0
2015-Jan-24 21:31N 43°25' E 004°50'0 0.0
2015-Jan-24 20:13N 43°25' E 004°50'0 0.0
2015-Jan-24 18:16N 43°25' E 004°50'0 0.0
2015-Jan-24 14:22N 43°25' E 004°50'0 0.0
2015-Jan-24 13:28N 43°25' E 004°50'0 0.0
2015-Jan-24 12:22N 43°25' E 004°50'0 0.0
2015-Jan-24 11:28N 43°25' E 004°50'0 0.0
2015-Jan-24 10:28N 43°25' E 004°50'0 0.0
2015-Jan-24 09:22N 43°25' E 004°50'0 0.0
2015-Jan-24 08:28N 43°25' E 004°50'0 0.0
2015-Jan-24 06:16N 43°25' E 004°50'0 0.0
2015-Jan-24 05:28N 43°25' E 004°50'0 0.0
2015-Jan-24 04:28N 43°25' E 004°50'0 0.0
2015-Jan-24 03:16N 43°25' E 004°50'0 0.0
2015-Jan-24 02:28N 43°25' E 004°50'0 0.0
2015-Jan-24 01:16N 43°25' E 004°50'0 0.0
2015-Jan-24 00:28N 43°25' E 004°50'0 0.0
2015-Jan-23 23:31N 43°25' E 004°50'0 0.0
2015-Jan-23 22:28N 43°25' E 004°50'0 0.0
2015-Jan-23 21:16N 43°25' E 004°50'0 0.0
2015-Jan-23 20:16N 43°25' E 004°50'0 0.0
2015-Jan-23 19:10N 43°25' E 004°50'0 0.0
2015-Jan-23 18:16N 43°25' E 004°50'0 0.5
2015-Jan-23 17:33N 43°25' E 004°51'6 5.5
2015-Jan-23 16:31N 43°23' E 004°58'0 0.0
2015-Jan-23 15:31N 43°23' E 004°58'0 0.0
2015-Jan-23 14:31N 43°23' E 004°58'0 0.0
2015-Jan-23 13:31N 43°23' E 004°58'0 0.0
2015-Jan-23 12:31N 43°23' E 004°58'0 0.0
2015-Jan-23 11:31N 43°23' E 004°58'0 0.0
2015-Jan-23 10:31N 43°23' E 004°58'0 0.0
2015-Jan-23 09:31N 43°23' E 004°58'0 0.0
2015-Jan-23 08:31N 43°23' E 004°58'0 0.0
2015-Jan-23 07:31N 43°23' E 004°58'0 0.0
2015-Jan-23 06:31N 43°23' E 004°58'0 0.0
2015-Jan-23 05:31N 43°23' E 004°58'0 0.0
2015-Jan-23 04:31N 43°24' E 004°58'0 0.0
2015-Jan-23 03:31N 43°24' E 004°58'0 0.0
2015-Jan-23 02:32N 43°23' E 004°58'0 0.0
2015-Jan-23 01:32N 43°24' E 004°58'0 0.0
2015-Jan-23 00:32N 43°24' E 004°58'0 0.0
2015-Jan-22 23:31N 43°24' E 004°58'0 0.0
2015-Jan-22 22:31N 43°24' E 004°58'0 0.0
2015-Jan-22 21:31N 43°24' E 004°58'0 0.0
2015-Jan-22 20:31N 43°24' E 004°58'0 0.0
2015-Jan-22 19:31N 43°24' E 004°58'0 0.0
2015-Jan-22 18:31N 43°24' E 004°58'0 0.0
2015-Jan-22 17:31N 43°24' E 004°58'0 0.0
2015-Jan-22 16:31N 43°24' E 004°58'0 0.0
2015-Jan-22 15:31N 43°24' E 004°58'0 0.0
2015-Jan-22 14:31N 43°24' E 004°58'0 0.0
2015-Jan-22 13:31N 43°24' E 004°58'0 0.0
2015-Jan-22 12:31N 43°24' E 004°58'0 0.0
2015-Jan-22 11:31N 43°24' E 004°58'0 0.0
2015-Jan-22 10:31N 43°24' E 004°58'0 0.0
2015-Jan-22 09:31N 43°24' E 004°58'0 0.0
2015-Jan-22 08:31N 43°24' E 004°58'0 0.0
2015-Jan-22 07:31N 43°24' E 004°58'0 0.0
2015-Jan-22 06:31N 43°24' E 004°58'0 0.1
2015-Jan-22 05:34N 43°24' E 004°58'7 6.6
2015-Jan-22 04:34N 43°17' E 005°00'79 9.8
2015-Jan-21 20:32N 42°53' E 006°43'1111.3
2015-Jan-21 19:33N 42°54' E 006°58'1111.5
2015-Jan-21 18:33N 42°56' E 007°13'  

Dump ship's entire track history